Time;durP1;ratioP1;P1;durP2;ratioP2;P2;SDS_P1;SDS_P2;PMS_P1;PMS_P2;Temp;Humidity;BMP_temperature;BMP_pressure;BME280_temperature;BME280_humidity;BME280_pressure;Samples;Min_cycle;Max_cycle;Signal;HPM_P1;HPM_P2
2021/05/05 00:01:35;;;;;;;3.78;3.25;;;12.80;55.70;;;;;;5073415;28;20525;-74
2021/05/05 00:04:00;;;;;;;6.82;3.85;;;12.80;56.30;;;;;;5071706;28;20476;-72
2021/05/05 00:06:26;;;;;;;5.63;3.28;;;12.80;56.30;;;;;;5072698;28;20041;-74
2021/05/05 00:08:52;;;;;;;7.22;3.33;;;12.70;56.40;;;;;;5072951;28;20028;-73
2021/05/05 00:11:18;;;;;;;5.85;3.47;;;12.70;56.80;;;;;;5071683;28;20093;-75
2021/05/05 00:13:44;;;;;;;5.70;3.38;;;12.70;56.90;;;;;;5071679;28;20028;-74
2021/05/05 00:16:10;;;;;;;7.30;3.60;;;12.60;56.80;;;;;;5072899;28;20486;-73
2021/05/05 00:18:36;;;;;;;6.45;3.35;;;12.60;57.20;;;;;;5071520;28;20385;-73
2021/05/05 00:21:04;;;;;;;5.05;3.53;;;12.60;57.20;;;;;;5072889;28;20021;-73
2021/05/05 00:23:30;;;;;;;8.20;3.30;;;12.60;57.40;;;;;;5072807;28;20028;-73
2021/05/05 00:25:55;;;;;;;6.50;3.33;;;12.60;57.30;;;;;;5072860;28;20201;-74
2021/05/05 00:28:21;;;;;;;6.65;3.67;;;12.50;57.30;;;;;;5071395;28;20020;-73
2021/05/05 00:30:47;;;;;;;5.57;3.38;;;12.50;57.50;;;;;;5072631;28;20055;-73
2021/05/05 00:33:13;;;;;;;5.22;3.58;;;12.50;57.60;;;;;;5071464;28;20099;-72
2021/05/05 00:35:39;;;;;;;4.57;2.92;;;12.50;58.10;;;;;;5072858;28;20439;-73
2021/05/05 00:38:05;;;;;;;7.90;3.60;;;12.50;57.90;;;;;;5072636;28;20107;-73
2021/05/05 00:40:31;;;;;;;5.97;3.95;;;12.50;57.70;;;;;;5075264;28;20016;-74
2021/05/05 00:42:57;;;;;;;4.40;3.17;;;12.40;57.70;;;;;;5075571;28;20115;-73
2021/05/05 00:45:22;;;;;;;4.03;3.20;;;12.50;57.60;;;;;;5076746;28;20570;-75
2021/05/05 00:47:48;;;;;;;4.07;3.40;;;12.40;57.70;;;;;;5076748;28;20027;-73
2021/05/05 00:50:16;;;;;;;6.32;3.35;;;12.40;57.60;;;;;;5076674;28;20410;-74
2021/05/05 00:52:42;;;;;;;7.25;3.00;;;12.40;57.70;;;;;;5075234;28;20021;-74
2021/05/05 00:55:09;;;;;;;4.80;3.10;;;12.40;57.80;;;;;;5074956;28;20405;-74
2021/05/05 00:57:35;;;;;;;5.53;3.08;;;12.30;57.90;;;;;;5075071;28;20020;-73
2021/05/05 01:00:02;;;;;;;4.93;3.20;;;12.30;58.20;;;;;;5075048;28;20105;-73
2021/05/05 01:02:28;;;;;;;6.38;3.00;;;12.30;57.90;;;;;;5074864;28;20027;-73
2021/05/05 01:04:54;;;;;;;7.55;3.65;;;12.30;58.00;;;;;;5076382;28;20028;-73
2021/05/05 01:07:19;;;;;;;7.05;3.20;;;12.20;57.90;;;;;;5075014;28;20033;-73
2021/05/05 01:09:46;;;;;;;5.30;2.83;;;12.20;58.30;;;;;;5076311;28;20036;-73
2021/05/05 01:12:14;;;;;;;5.28;3.70;;;12.20;57.90;;;;;;5076203;28;20470;-73
2021/05/05 01:14:40;;;;;;;2.97;2.72;;;12.20;57.90;;;;;;5076268;28;20355;-73
2021/05/05 01:17:07;;;;;;;6.80;3.30;;;12.20;59.00;;;;;;5076111;28;20529;-73
2021/05/05 01:19:34;;;;;;;3.88;3.20;;;12.10;58.20;;;;;;5076122;28;20054;-73
2021/05/05 01:22:00;;;;;;;6.18;3.85;;;12.20;58.40;;;;;;5075668;28;20078;-73
2021/05/05 01:24:25;;;;;;;4.88;3.20;;;12.10;58.20;;;;;;5076050;28;20021;-74
2021/05/05 01:26:51;;;;;;;3.28;2.97;;;12.10;58.10;;;;;;5075938;28;20101;-73
2021/05/05 01:29:17;;;;;;;5.03;2.97;;;12.10;58.20;;;;;;5075940;28;20039;-75
2021/05/05 01:31:42;;;;;;;5.30;2.90;;;12.20;57.90;;;;;;5075929;28;20052;-73
2021/05/05 01:34:08;;;;;;;4.93;3.60;;;12.20;58.00;;;;;;5074598;28;20031;-74
2021/05/05 01:36:36;;;;;;;5.38;3.38;;;12.20;58.20;;;;;;5075732;28;20046;-74
2021/05/05 01:39:04;;;;;;;5.05;2.90;;;12.20;58.30;;;;;;5074262;28;20017;-73
2021/05/05 01:41:32;;;;;;;3.78;2.90;;;12.20;58.10;;;;;;5074388;28;20029;-73
2021/05/05 01:43:58;;;;;;;3.47;2.67;;;12.20;58.70;;;;;;5075690;28;20021;-73
2021/05/05 01:46:24;;;;;;;5.75;3.13;;;12.10;58.90;;;;;;5075531;28;20532;-74
2021/05/05 01:48:49;;;;;;;5.18;2.88;;;12.10;58.80;;;;;;5075419;28;20025;-73
2021/05/05 01:51:15;;;;;;;4.75;2.90;;;12.20;58.50;;;;;;5073948;28;20020;-74
2021/05/05 01:53:41;;;;;;;4.57;2.90;;;12.10;58.50;;;;;;5075562;28;20020;-73
2021/05/05 01:56:07;;;;;;;5.40;2.45;;;12.10;58.60;;;;;;5075479;28;20447;-74
2021/05/05 01:58:34;;;;;;;3.15;2.78;;;12.10;58.70;;;;;;5075577;28;20025;-73
2021/05/05 02:01:00;;;;;;;3.15;2.85;;;12.10;58.80;;;;;;5075363;28;20027;-73
2021/05/05 02:03:26;;;;;;;4.82;2.65;;;12.10;58.60;;;;;;5075177;28;20033;-73
2021/05/05 02:05:52;;;;;;;3.58;2.70;;;12.10;58.60;;;;;;5073545;28;20123;-73
2021/05/05 02:08:18;;;;;;;4.70;2.72;;;12.10;58.30;;;;;;5073855;28;20025;-73
2021/05/05 02:10:45;;;;;;;3.65;2.85;;;12.10;58.40;;;;;;5075259;28;20096;-73
2021/05/05 02:13:12;;;;;;;4.72;4.05;;;12.10;58.80;;;;;;5073612;28;20020;-73
2021/05/05 02:15:38;;;;;;;6.30;3.13;;;12.10;59.00;;;;;;5075170;28;20044;-74
2021/05/05 02:18:06;;;;;;;4.57;3.47;;;12.00;58.60;;;;;;5075009;28;20433;-74
2021/05/05 02:20:32;;;;;;;3.58;2.67;;;12.00;58.50;;;;;;5075033;28;20440;-73
2021/05/05 02:22:58;;;;;;;2.70;2.45;;;12.00;58.70;;;;;;5073692;28;20020;-73
2021/05/05 02:25:23;;;;;;;4.85;3.00;;;12.00;59.00;;;;;;5074780;28;20478;-73
2021/05/05 02:27:50;;;;;;;3.15;2.65;;;12.00;59.30;;;;;;5074997;28;20025;-73
2021/05/05 02:30:17;;;;;;;6.25;3.03;;;12.00;59.40;;;;;;5074246;28;20529;-73
2021/05/05 02:32:45;;;;;;;3.03;2.75;;;12.00;59.50;;;;;;5074680;28;20040;-73
2021/05/05 02:35:12;;;;;;;5.30;2.40;;;12.00;59.90;;;;;;5073277;28;20097;-73
2021/05/05 02:37:38;;;;;;;3.83;2.67;;;11.90;60.30;;;;;;5074492;28;20081;-73
2021/05/05 02:40:08;;;;;;;2.88;2.28;;;11.90;60.60;;;;;;5074516;28;20035;-74
2021/05/05 02:42:34;;;;;;;4.32;2.80;;;11.90;60.20;;;;;;5074714;28;20024;-73
2021/05/05 02:45:00;;;;;;;3.03;2.70;;;11.90;60.60;;;;;;5074224;28;20023;-73
2021/05/05 02:47:26;;;;;;;4.43;2.80;;;11.90;61.70;;;;;;5073040;28;20504;-73
2021/05/05 02:49:52;;;;;;;3.65;2.90;;;11.90;62.10;;;;;;5074141;28;20028;-74
2021/05/05 02:52:17;;;;;;;4.68;2.72;;;11.80;62.10;;;;;;5073962;28;20020;-73
2021/05/05 02:54:43;;;;;;;3.28;2.88;;;11.80;62.80;;;;;;5072870;28;20053;-74
2021/05/05 02:57:09;;;;;;;3.25;2.40;;;11.70;63.10;;;;;;5074056;28;20074;-73
2021/05/05 02:59:35;;;;;;;5.80;2.67;;;11.70;62.00;;;;;;5073033;28;20029;-73
2021/05/05 03:02:01;;;;;;;5.50;3.05;;;11.70;62.00;;;;;;5071904;28;20013;-73
2021/05/05 03:04:27;;;;;;;3.80;2.67;;;11.60;63.30;;;;;;5072691;28;20009;-73
2021/05/05 03:06:54;;;;;;;6.13;2.88;;;11.60;63.40;;;;;;5073803;28;20047;-73
2021/05/05 03:09:24;;;;;;;6.40;2.85;;;11.60;63.80;;;;;;5073888;28;20025;-73
2021/05/05 03:11:50;;;;;;;4.95;3.10;;;11.60;64.50;;;;;;5072798;28;20457;-73
2021/05/05 03:14:15;;;;;;;3.72;2.75;;;11.60;64.90;;;;;;5073611;28;20025;-73
2021/05/05 03:16:41;;;;;;;8.38;3.30;;;11.50;63.70;;;;;;5072190;28;20031;-73
2021/05/05 03:19:07;;;;;;;5.07;3.38;;;11.50;63.50;;;;;;5073086;28;20402;-73
2021/05/05 03:21:32;;;;;;;5.95;3.33;;;11.50;63.70;;;;;;5073659;28;20131;-73
2021/05/05 03:23:58;;;;;;;12.48;3.95;;;11.50;63.90;;;;;;5073531;28;20024;-73
2021/05/05 03:26:24;;;;;;;5.50;3.30;;;11.50;63.50;;;;;;5073330;28;20050;-73
2021/05/05 03:28:50;;;;;;;4.50;3.05;;;11.50;64.20;;;;;;5072153;28;20021;-73
2021/05/05 03:31:15;;;;;;;2.70;2.50;;;11.50;64.30;;;;;;5072168;28;20064;-75
2021/05/05 03:33:41;;;;;;;8.82;3.25;;;11.50;63.50;;;;;;5073400;28;20020;-73
2021/05/05 03:36:07;;;;;;;5.18;3.30;;;11.50;63.40;;;;;;5073347;28;20100;-74
2021/05/05 03:38:33;;;;;;;5.30;3.28;;;11.60;63.00;;;;;;5073282;28;20032;-73
2021/05/05 03:41:00;;;;;;;5.45;3.35;;;11.60;62.90;;;;;;5073285;28;20025;-73
2021/05/05 03:43:25;;;;;;;5.82;3.47;;;11.60;62.40;;;;;;5073103;28;20031;-73
2021/05/05 03:45:51;;;;;;;2.70;2.50;;;11.60;62.70;;;;;;5072388;28;20494;-74
2021/05/05 03:48:17;;;;;;;3.35;3.05;;;11.60;64.20;;;;;;5073130;28;20028;-73
2021/05/05 03:50:43;;;;;;;6.68;3.08;;;11.60;63.30;;;;;;5073168;28;20028;-73
2021/05/05 03:53:08;;;;;;;5.68;3.00;;;11.60;62.90;;;;;;5073078;28;20024;-73
2021/05/05 03:55:34;;;;;;;6.45;3.30;;;11.70;62.30;;;;;;5073056;28;20479;-73
2021/05/05 03:58:00;;;;;;;3.97;3.17;;;11.70;62.20;;;;;;5072953;28;20046;-73
2021/05/05 04:00:26;;;;;;;5.18;2.90;;;11.70;63.30;;;;;;5072965;28;20047;-72
2021/05/05 04:02:51;;;;;;;6.13;3.47;;;11.70;62.50;;;;;;5071537;28;20031;-73
2021/05/05 04:05:17;;;;;;;6.13;3.30;;;11.70;62.70;;;;;;5073018;28;20051;-74
2021/05/05 04:07:43;;;;;;;6.45;3.33;;;11.80;64.00;;;;;;5072937;28;20020;-74
2021/05/05 04:10:10;;;;;;;8.27;3.90;;;11.80;63.60;;;;;;5072629;28;20043;-74
2021/05/05 04:12:36;;;;;;;6.22;4.05;;;11.80;63.60;;;;;;5072865;28;20020;-73
2021/05/05 04:15:03;;;;;;;11.27;4.53;;;11.80;64.40;;;;;;5072744;28;20375;-73
2021/05/05 04:17:29;;;;;;;11.63;3.92;;;11.80;64.60;;;;;;5072727;28;20029;-73
2021/05/05 04:19:57;;;;;;;8.77;3.88;;;11.80;64.20;;;;;;5072690;28;20108;-73
2021/05/05 04:22:24;;;;;;;8.50;4.03;;;11.80;63.40;;;;;;5071386;28;20020;-73
2021/05/05 04:24:50;;;;;;;13.98;4.45;;;11.80;65.40;;;;;;5072700;28;20371;-73
2021/05/05 04:27:16;;;;;;;11.77;3.60;;;11.80;65.70;;;;;;5072534;28;20040;-73
2021/05/05 04:29:42;;;;;;;10.07;4.00;;;11.80;66.10;;;;;;5072685;28;20017;-73
2021/05/05 04:32:10;;;;;;;12.50;4.28;;;11.80;65.60;;;;;;5068751;28;20505;-73
2021/05/05 04:34:35;;;;;;;8.70;4.05;;;11.90;65.20;;;;;;5052626;28;20048;-73
2021/05/05 04:37:03;;;;;;;5.80;2.92;;;11.90;64.60;;;;;;5052400;28;20474;-73
2021/05/05 04:39:29;;;;;;;3.85;3.40;;;11.90;63.50;;;;;;5052511;28;20024;-73
2021/05/05 04:41:55;;;;;;;8.07;3.53;;;11.90;64.40;;;;;;5052401;28;20025;-73
2021/05/05 04:44:20;;;;;;;4.22;3.25;;;11.90;63.30;;;;;;5055535;28;20378;-75
2021/05/05 04:46:46;;;;;;;5.97;3.40;;;11.90;64.00;;;;;;5053126;28;20041;-73
2021/05/05 04:49:12;;;;;;;6.72;3.25;;;11.90;63.90;;;;;;5052315;28;20099;-74
2021/05/05 04:51:39;;;;;;;4.95;3.10;;;12.00;65.00;;;;;;5063766;28;20037;-74
2021/05/05 04:54:07;;;;;;;9.18;3.22;;;12.00;66.10;;;;;;5072102;28;20090;-73
2021/05/05 04:56:33;;;;;;;4.07;3.50;;;12.00;65.60;;;;;;5072289;28;20025;-73
2021/05/05 04:58:58;;;;;;;4.55;3.28;;;12.10;65.80;;;;;;5072447;28;20037;-73
2021/05/05 05:01:24;;;;;;;4.25;3.10;;;12.10;67.00;;;;;;5072386;28;20025;-74
2021/05/05 05:03:50;;;;;;;5.95;2.90;;;12.20;67.10;;;;;;5072263;28;20059;-72
2021/05/05 05:06:15;;;;;;;4.05;2.60;;;12.30;68.30;;;;;;5070958;28;20032;-72
2021/05/05 05:08:41;;;;;;;3.78;2.60;;;12.50;69.00;;;;;;5072235;28;20024;-72
2021/05/05 05:11:06;;;;;;;5.75;3.17;;;12.60;69.30;;;;;;5063637;28;20017;-72
2021/05/05 05:13:32;;;;;;;5.97;2.75;;;12.70;67.40;;;;;;5052047;28;20033;-72
2021/05/05 05:15:58;;;;;;;4.15;3.20;;;12.90;65.80;;;;;;5064869;28;20056;-72
2021/05/05 05:18:23;;;;;;;6.25;3.58;;;13.00;63.50;;;;;;5072037;28;20032;-72
2021/05/05 05:20:49;;;;;;;4.35;2.97;;;13.10;63.40;;;;;;5071969;28;20097;-73
2021/05/05 05:23:15;;;;;;;6.47;2.78;;;13.20;62.90;;;;;;5071762;28;20028;-72
2021/05/05 05:25:41;;;;;;;3.58;3.25;;;13.30;62.40;;;;;;5071821;28;20044;-73
2021/05/05 05:28:06;;;;;;;6.00;3.13;;;13.40;62.50;;;;;;5066346;28;20043;-72
2021/05/05 05:30:32;;;;;;;5.97;3.15;;;13.40;61.00;;;;;;5066218;28;20039;-73
2021/05/05 05:32:58;;;;;;;4.50;3.30;;;13.40;61.50;;;;;;5075019;28;20035;-71
2021/05/05 05:35:24;;;;;;;4.03;3.28;;;13.60;61.70;;;;;;5075565;28;20111;-72
2021/05/05 05:37:50;;;;;;;6.55;3.72;;;13.60;62.00;;;;;;5075768;28;20024;-72
2021/05/05 05:40:17;;;;;;;5.55;3.72;;;13.70;61.20;;;;;;5075500;28;20138;-73
2021/05/05 05:42:43;;;;;;;5.25;3.50;;;13.80;60.60;;;;;;5074136;28;20055;-72
2021/05/05 05:45:11;;;;;;;7.43;3.58;;;13.80;60.90;;;;;;5075353;28;20032;-72
2021/05/05 05:47:37;;;;;;;8.90;4.15;;;14.00;61.50;;;;;;5075067;28;20026;-72
2021/05/05 05:50:03;;;;;;;10.07;3.70;;;14.00;61.20;;;;;;5075143;28;20112;-72
2021/05/05 05:52:29;;;;;;;11.70;6.78;;;14.10;59.40;;;;;;5074833;28;20020;-72
2021/05/05 05:54:55;;;;;;;6.00;3.95;;;14.10;59.20;;;;;;5065195;28;20356;-73
2021/05/05 05:57:21;;;;;;;6.45;3.70;;;14.20;59.30;;;;;;5065580;28;20071;-72
2021/05/05 05:59:46;;;;;;;6.65;3.35;;;14.30;58.70;;;;;;5066523;28;20058;-71
2021/05/05 06:02:12;;;;;;;4.65;2.88;;;14.50;57.90;;;;;;5068286;28;20021;-72
2021/05/05 06:04:38;;;;;;;4.25;3.25;;;14.70;57.80;;;;;;5065137;28;20408;-74
2021/05/05 06:07:03;;;;;;;4.00;3.33;;;14.80;56.00;;;;;;5064646;28;20036;-72
2021/05/05 06:09:29;;;;;;;5.63;3.42;;;14.70;56.60;;;;;;5065804;28;20028;-73
2021/05/05 06:11:55;;;;;;;5.90;3.75;;;14.60;54.60;;;;;;5071631;28;20454;-72
2021/05/05 06:14:20;;;;;;;5.32;3.33;;;14.50;54.60;;;;;;5070410;28;20027;-73
2021/05/05 06:16:46;;;;;;;6.85;3.33;;;14.50;56.30;;;;;;5068703;28;20385;-72
2021/05/05 06:19:12;;;;;;;6.03;2.85;;;14.50;57.20;;;;;;5069991;28;20363;-73
2021/05/05 06:21:37;;;;;;;4.60;3.42;;;14.50;55.90;;;;;;5069333;28;20044;-73
2021/05/05 06:24:04;;;;;;;5.55;2.88;;;14.60;57.30;;;;;;5069340;28;20681;-73
2021/05/05 06:26:30;;;;;;;3.17;2.88;;;14.60;55.80;;;;;;5072169;28;20089;-73
2021/05/05 06:28:56;;;;;;;5.70;2.40;;;14.70;55.80;;;;;;5071711;28;20482;-73
2021/05/05 06:31:21;;;;;;;5.78;2.35;;;14.80;54.70;;;;;;5066637;28;20020;-73
2021/05/05 06:33:47;;;;;;;2.58;2.20;;;15.10;55.50;;;;;;5068587;28;20056;-72
2021/05/05 06:36:13;;;;;;;3.72;2.22;;;15.40;54.60;;;;;;5070949;28;20023;-74
2021/05/05 06:38:38;;;;;;;4.05;2.22;;;15.60;54.20;;;;;;5069977;28;20409;-73
2021/05/05 06:41:04;;;;;;;2.58;1.85;;;15.70;53.70;;;;;;5071566;28;20389;-74
2021/05/05 06:43:31;;;;;;;5.60;2.55;;;16.00;52.70;;;;;;5071161;28;20020;-73
2021/05/05 06:45:56;;;;;;;3.33;2.42;;;16.10;53.40;;;;;;5071126;28;20055;-74
2021/05/05 06:48:22;;;;;;;4.25;2.20;;;16.10;51.60;;;;;;5071691;28;20470;-73
2021/05/05 06:50:48;;;;;;;2.90;2.08;;;16.20;51.30;;;;;;5073732;28;20107;-74
2021/05/05 06:53:14;;;;;;;2.72;2.15;;;16.10;50.70;;;;;;5073777;28;20028;-74
2021/05/05 06:55:40;;;;;;;4.55;2.65;;;16.20;51.60;;;;;;5071489;28;20048;-74
2021/05/05 06:58:06;;;;;;;8.45;3.90;;;16.30;51.50;;;;;;5071921;28;20072;-74
2021/05/05 07:00:31;;;;;;;8.30;3.03;;;16.40;51.60;;;;;;5071893;28;20058;-75
2021/05/05 07:02:57;;;;;;;5.60;2.45;;;16.40;50.70;;;;;;5073613;28;20025;-74
2021/05/05 07:05:23;;;;;;;2.45;1.58;;;16.80;50.60;;;;;;5072487;28;20379;-74
2021/05/05 07:07:49;;;;;;;3.92;2.22;;;16.90;49.20;;;;;;5072754;28;20020;-74
2021/05/05 07:10:15;;;;;;;2.28;1.88;;;16.60;47.90;;;;;;5073682;28;20378;-75
2021/05/05 07:12:41;;;;;;;8.25;2.95;;;16.50;48.10;;;;;;5069509;28;20033;-74
2021/05/05 07:15:07;;;;;;;4.78;2.40;;;16.70;49.60;;;;;;5072092;28;20052;-74
2021/05/05 07:17:33;;;;;;;2.40;2.20;;;16.70;49.70;;;;;;5072797;28;20074;-74
2021/05/05 07:19:59;;;;;;;2.35;1.63;;;16.70;49.10;;;;;;5070328;28;20409;-74
2021/05/05 07:22:25;;;;;;;2.75;1.98;;;16.80;49.10;;;;;;5073219;28;20082;-74
2021/05/05 07:24:51;;;;;;;2.55;2.03;;;17.00;49.00;;;;;;5073615;28;20028;-75
2021/05/05 07:27:17;;;;;;;2.53;2.05;;;17.20;49.20;;;;;;5072175;28;20025;-74
2021/05/05 07:29:43;;;;;;;4.20;1.85;;;17.40;48.10;;;;;;5073489;28;20017;-73
2021/05/05 07:32:09;;;;;;;2.35;2.05;;;17.30;46.10;;;;;;5073430;28;20473;-73
2021/05/05 07:34:37;;;;;;;1.98;1.85;;;17.40;47.20;;;;;;5073261;28;20378;-73
2021/05/05 07:37:09;;;;;;;2.35;1.98;;;17.50;46.60;;;;;;5073372;28;20143;-74
2021/05/05 07:47:34;;;;;;;3.10;1.90;;;17.90;45.70;;;;;;5073136;28;20044;-73
2021/05/05 07:50:00;;;;;;;5.47;2.13;;;18.10;45.60;;;;;;5072797;28;20032;-73
2021/05/05 07:52:26;;;;;;;3.35;1.80;;;18.00;44.30;;;;;;5073157;28;20392;-73
2021/05/05 07:54:52;;;;;;;6.47;2.72;;;18.30;45.20;;;;;;5073086;28;20024;-74
2021/05/05 07:57:19;;;;;;;3.42;2.10;;;18.40;43.90;;;;;;5071752;28;20474;-73
2021/05/05 07:59:45;;;;;;;7.78;3.08;;;18.40;43.60;;;;;;5071709;28;20154;-73
2021/05/05 08:02:11;;;;;;;4.88;4.03;;;18.40;43.60;;;;;;5073157;28;20555;-74
2021/05/05 08:04:36;;;;;;;3.72;1.80;;;18.50;43.70;;;;;;5072144;28;20035;-74
2021/05/05 08:07:02;;;;;;;3.55;2.30;;;18.50;44.10;;;;;;5071127;28;20040;-73
2021/05/05 08:09:28;;;;;;;3.42;3.03;;;18.50;44.00;;;;;;5072862;28;20044;-74
2021/05/05 08:11:54;;;;;;;2.00;1.80;;;18.60;44.90;;;;;;5072724;28;20654;-73
2021/05/05 08:14:20;;;;;;;6.10;2.30;;;18.50;43.70;;;;;;5072885;28;20039;-74
2021/05/05 08:16:46;;;;;;;4.03;1.80;;;18.40;43.50;;;;;;5072783;28;20027;-73
2021/05/05 08:19:13;;;;;;;3.53;3.20;;;18.20;44.00;;;;;;5072657;28;20063;-75
2021/05/05 08:21:41;;;;;;;2.90;1.85;;;18.30;44.90;;;;;;5068817;28;20105;-72
2021/05/05 08:24:07;;;;;;;2.35;2.03;;;18.50;44.20;;;;;;5071075;28;20040;-73
2021/05/05 08:26:33;;;;;;;11.40;3.03;;;18.50;44.20;;;;;;5069327;28;20024;-72
2021/05/05 08:28:58;;;;;;;6.93;4.53;;;18.50;44.50;;;;;;5071314;28;20031;-72
2021/05/05 08:31:25;;;;;;;6.35;3.22;;;18.50;45.10;;;;;;5071109;28;20036;-73
2021/05/05 08:33:51;;;;;;;3.95;2.60;;;18.40;44.50;;;;;;5071337;28;20032;-72
2021/05/05 08:36:16;;;;;;;2.25;1.90;;;18.40;44.50;;;;;;5072062;28;20364;-73
2021/05/05 08:38:42;;;;;;;5.82;3.13;;;18.20;44.00;;;;;;5072170;28;20606;-73
2021/05/05 08:41:11;;;;;;;23.88;10.98;;;18.20;44.90;;;;;;5071310;28;20025;-74
2021/05/05 08:43:37;;;;;;;57.22;25.75;;;18.10;44.30;;;;;;5072495;28;20024;-73
2021/05/05 08:46:06;;;;;;;4.35;2.75;;;18.10;45.10;;;;;;5072376;28;20032;-73
2021/05/05 08:48:31;;;;;;;14.45;7.95;;;18.00;45.20;;;;;;5072518;28;20070;-73
2021/05/05 08:50:58;;;;;;;35.35;18.35;;;17.80;44.30;;;;;;5071124;28;20483;-73
2021/05/05 08:53:23;;;;;;;24.00;10.98;;;17.70;44.90;;;;;;5070694;28;20033;-73
2021/05/05 08:55:49;;;;;;;4.93;2.20;;;17.70;44.30;;;;;;5071833;28;20517;-74
2021/05/05 08:58:15;;;;;;;3.42;1.90;;;17.50;44.80;;;;;;5071030;28;20114;-73
2021/05/05 09:00:40;;;;;;;5.43;2.03;;;17.50;45.10;;;;;;5072164;28;20031;-74
2021/05/05 09:03:07;;;;;;;3.72;2.25;;;17.50;45.20;;;;;;5076223;28;20028;-73
2021/05/05 09:05:58;;;;;;;1.90;1.80;;;17.50;45.50;;;;;;5076267;28;20051;-73
2021/05/05 09:08:26;;;;;;;2.25;2.05;;;17.40;44.30;;;;;;5076194;28;20029;-73
2021/05/05 09:11:02;;;;;;;4.25;2.05;;;17.40;44.70;;;;;;5076147;28;20016;-73
2021/05/05 09:13:51;;;;;;;2.50;1.95;;;17.50;44.90;;;;;;5076080;28;20017;-73
2021/05/05 09:16:23;;;;;;;50.17;24.35;;;17.70;45.50;;;;;;5074800;28;20020;-73
2021/05/05 09:18:56;;;;;;;2.40;2.20;;;17.80;45.20;;;;;;5076090;28;20028;-73
2021/05/05 09:21:45;;;;;;;2.53;2.10;;;17.90;45.30;;;;;;5073924;28;20113;-73
2021/05/05 09:24:17;;;;;;;11.98;4.50;;;17.80;44.50;;;;;;5073885;28;20024;-72
2021/05/05 09:26:43;;;;;;;4.37;2.13;;;17.70;45.50;;;;;;5074447;28;20039;-72
2021/05/05 09:29:09;;;;;;;3.38;2.33;;;17.70;45.90;;;;;;5074839;28;20259;-72
2021/05/05 09:31:37;;;;;;;2.92;2.10;;;17.70;45.20;;;;;;5075335;28;20479;-73
2021/05/05 09:34:04;;;;;;;4.15;1.98;;;17.70;45.80;;;;;;5075561;28;20024;-74
2021/05/05 09:36:30;;;;;;;1.77;1.67;;;17.90;45.80;;;;;;5074359;28;20036;-73
2021/05/05 09:38:56;;;;;;;2.42;2.10;;;18.10;46.10;;;;;;5075656;28;20025;-73
2021/05/05 09:41:28;;;;;;;2.67;2.22;;;18.20;44.90;;;;;;5075726;28;20028;-73
2021/05/05 09:44:06;;;;;;;3.53;2.37;;;18.20;44.40;;;;;;5075707;28;20020;-72
2021/05/05 09:46:44;;;;;;;2.13;1.75;;;18.10;44.10;;;;;;5075598;28;20329;-73
2021/05/05 09:49:19;;;;;;;2.22;1.98;;;18.10;44.80;;;;;;5074232;28;20021;-73
2021/05/05 09:52:01;;;;;;;2.17;1.98;;;18.10;44.60;;;;;;5075355;28;20047;-73
2021/05/05 09:54:37;;;;;;;2.83;1.75;;;17.90;43.80;;;;;;5074285;28;20354;-73
2021/05/05 09:57:18;;;;;;;3.25;2.03;;;17.70;43.80;;;;;;5075363;28;20055;-74
2021/05/05 10:00:06;;;;;;;3.25;1.80;;;17.60;44.20;;;;;;5076004;28;20024;-73
2021/05/05 10:02:41;;;;;;;4.28;2.13;;;17.50;44.50;;;;;;5073478;28;20067;-73
2021/05/05 10:05:10;;;;;;;3.55;2.17;;;17.60;45.20;;;;;;5073795;28;20147;-74
2021/05/05 10:07:59;;;;;;;3.67;2.03;;;17.60;45.10;;;;;;5073865;28;20078;-73
2021/05/05 10:10:27;;;;;;;6.95;3.10;;;17.60;45.00;;;;;;5073809;28;20033;-73
2021/05/05 10:12:55;;;;;;;6.85;2.78;;;17.50;45.50;;;;;;5074747;28;20031;-73
2021/05/05 10:15:21;;;;;;;6.25;3.45;;;17.40;46.70;;;;;;5073696;28;20021;-73
2021/05/05 10:17:51;;;;;;;8.73;3.65;;;17.30;46.50;;;;;;5073705;28;20115;-73
2021/05/05 10:20:23;;;;;;;5.30;2.97;;;17.40;47.80;;;;;;5075091;28;20047;-73
2021/05/05 10:22:53;;;;;;;5.18;2.92;;;17.80;48.30;;;;;;5074832;28;20024;-73
2021/05/05 10:25:19;;;;;;;5.68;2.72;;;18.20;49.10;;;;;;5074715;28;20024;-72
2021/05/05 10:27:45;;;;;;;5.20;3.05;;;18.40;47.40;;;;;;5073285;28;20040;-72
2021/05/05 10:30:14;;;;;;;4.30;3.10;;;18.40;46.60;;;;;;5074846;28;20021;-73
2021/05/05 10:32:43;;;;;;;6.32;3.28;;;18.40;45.80;;;;;;5074682;28;20024;-73
2021/05/05 10:35:13;;;;;;;6.80;3.38;;;18.30;45.60;;;;;;5074805;28;20024;-73
2021/05/05 10:37:40;;;;;;;3.70;2.72;;;18.40;46.20;;;;;;5074770;28;20028;-72
2021/05/05 10:40:36;;;;;;;6.20;3.17;;;18.10;45.40;;;;;;5074611;28;20021;-73
2021/05/05 10:43:06;;;;;;;5.43;2.85;;;18.10;47.20;;;;;;5062128;28;20446;-73
2021/05/05 10:45:43;;;;;;;12.13;4.45;;;17.90;47.50;;;;;;5074284;28;20428;-73
2021/05/05 10:48:13;;;;;;;7.88;3.97;;;17.70;48.00;;;;;;5073267;28;20488;-72
2021/05/05 10:50:51;;;;;;;9.65;4.47;;;17.60;47.60;;;;;;5074125;28;20017;-73
2021/05/05 10:53:17;;;;;;;4.60;3.20;;;17.50;48.60;;;;;;5072978;28;20028;-72
2021/05/05 10:55:51;;;;;;;6.47;2.95;;;17.40;48.90;;;;;;5074350;28;20078;-73
2021/05/05 10:58:28;;;;;;;4.05;2.88;;;17.20;49.40;;;;;;5072763;28;20037;-73
2021/05/05 11:00:55;;;;;;;5.40;3.97;;;17.00;49.00;;;;;;5074193;28;20020;-73
2021/05/05 11:03:43;;;;;;;3.38;3.03;;;17.00;49.60;;;;;;5074016;28;20013;-73
2021/05/05 11:06:31;;;;;;;3.85;3.35;;;17.10;50.00;;;;;;5073152;28;20082;-73
2021/05/05 11:09:03;;;;;;;5.55;3.60;;;17.00;49.80;;;;;;5073977;28;20029;-73
2021/05/05 11:11:36;;;;;;;6.28;3.75;;;17.00;49.90;;;;;;5073961;28;20031;-73
2021/05/05 11:14:02;;;;;;;4.13;3.17;;;16.90;49.90;;;;;;5072811;28;20020;-72
2021/05/05 11:16:54;;;;;;;6.93;3.38;;;16.80;50.30;;;;;;5073893;28;20021;-73
2021/05/05 11:19:41;;;;;;;4.50;3.63;;;16.60;50.90;;;;;;5073762;28;20032;-73
2021/05/05 11:22:08;;;;;;;6.78;3.20;;;16.50;51.60;;;;;;5072185;28;20036;-73
2021/05/05 11:24:34;;;;;;;5.88;4.00;;;16.40;52.40;;;;;;5073216;28;20602;-73
2021/05/05 11:27:02;;;;;;;5.03;3.28;;;16.10;54.00;;;;;;5072136;28;20043;-72
2021/05/05 11:29:43;;;;;;;7.63;4.90;;;15.80;55.20;;;;;;5073491;28;20020;-73
2021/05/05 11:32:13;;;;;;;9.05;4.18;;;15.20;59.20;;;;;;5073502;28;20073;-73
2021/05/05 11:34:41;;;;;;;5.97;4.70;;;14.70;64.90;;;;;;5072130;28;20036;-73
2021/05/05 11:37:14;;;;;;;5.38;3.83;;;14.40;69.30;;;;;;5073394;28;20059;-72
2021/05/05 11:39:42;;;;;;;5.68;4.18;;;14.20;70.40;;;;;;5073352;28;20032;-73
2021/05/05 11:42:16;;;;;;;5.57;3.35;;;13.80;72.30;;;;;;5072093;28;20020;-73
2021/05/05 11:44:48;;;;;;;4.60;3.05;;;13.60;72.70;;;;;;5073331;28;20022;-73
2021/05/05 11:47:20;;;;;;;3.65;2.63;;;13.60;71.60;;;;;;5071543;28;20036;-73
2021/05/05 11:49:48;;;;;;;4.53;2.70;;;13.40;70.90;;;;;;5072182;28;20052;-74
2021/05/05 11:52:27;;;;;;;4.05;2.42;;;13.30;70.40;;;;;;5073226;28;20107;-72
2021/05/05 11:54:58;;;;;;;4.68;3.28;;;12.90;70.40;;;;;;5073156;28;20028;-73
2021/05/05 11:57:25;;;;;;;2.38;2.00;;;12.70;70.90;;;;;;5073036;28;20020;-73
2021/05/05 11:59:52;;;;;;;2.88;2.17;;;12.30;71.20;;;;;;5072954;28;20037;-73
2021/05/05 12:02:19;;;;;;;2.97;2.47;;;11.80;74.40;;;;;;5072115;28;20032;-73
2021/05/05 12:04:46;;;;;;;3.78;2.50;;;11.80;76.20;;;;;;5072235;28;20085;-74
2021/05/05 12:07:19;;;;;;;3.40;2.60;;;11.70;76.30;;;;;;5070927;28;20032;-73
2021/05/05 12:09:46;;;;;;;3.47;2.58;;;11.90;76.50;;;;;;5070917;28;20025;-72
2021/05/05 12:12:23;;;;;;;2.72;2.25;;;12.20;76.20;;;;;;5071985;28;20021;-73
2021/05/05 12:15:09;;;;;;;2.50;2.30;;;12.30;75.40;;;;;;5070859;28;20416;-73
2021/05/05 12:17:46;;;;;;;4.30;2.65;;;12.00;75.60;;;;;;5070374;28;20040;-72
2021/05/05 12:20:14;;;;;;;2.65;2.13;;;12.00;77.30;;;;;;5070682;28;20503;-73
2021/05/05 12:22:57;;;;;;;9.00;3.05;;;12.20;79.20;;;;;;5068537;28;20025;-72
2021/05/05 12:25:32;;;;;;;2.85;2.42;;;11.90;78.70;;;;;;5071381;28;20020;-72
2021/05/05 12:28:17;;;;;;;2.60;2.15;;;11.70;80.80;;;;;;5070458;28;20050;-73
2021/05/05 12:30:53;;;;;;;2.47;2.28;;;11.50;80.40;;;;;;5071803;28;20027;-72
2021/05/05 12:33:31;;;;;;;2.17;1.98;;;11.30;83.70;;;;;;5071540;28;20138;-72
2021/05/05 12:35:58;;;;;;;2.30;1.92;;;11.10;86.30;;;;;;5070394;28;20052;-73
2021/05/05 12:38:24;;;;;;;4.47;2.35;;;11.00;88.00;;;;;;5071108;28;20028;-72
2021/05/05 12:40:59;;;;;;;3.35;2.20;;;10.90;92.20;;;;;;5071426;28;20028;-73
2021/05/05 12:43:27;;;;;;;12.45;6.30;;;10.80;95.90;;;;;;5062956;28;20103;-72
2021/05/05 12:45:55;;;;;;;12.65;7.45;;;10.70;99.60;;;;;;5060924;28;20041;-72
2021/05/05 12:48:30;;;;;;;24.33;11.25;;;10.60;99.90;;;;;;5068011;28;20020;-72
2021/05/05 12:51:06;;;;;;;9.13;4.93;;;10.50;99.90;;;;;;5071372;28;20054;-72
2021/05/05 12:53:57;;;;;;;11.20;5.50;;;10.30;99.90;;;;;;5069505;28;20020;-72
2021/05/05 12:56:44;;;;;;;3.25;1.77;;;10.00;99.90;;;;;;5071136;28;20107;-72
2021/05/05 12:59:14;;;;;;;8.15;3.60;;;9.90;99.90;;;;;;5048386;28;670048;-72